Time;durP1;ratioP1;P1;durP2;ratioP2;P2;SDS_P1;SDS_P2;PMS_P1;PMS_P2;Temp;Humidity;BMP_temperature;BMP_pressure;BME280_temperature;BME280_humidity;BME280_pressure;Samples;Min_cycle;Max_cycle;Signal;HPM_P1;HPM_P2
2023/07/09 00:01:13;;;;;;;5.33;4.83;;;;;;;17.48;100.00;99710.41;5096096;28;20189;-77
2023/07/09 00:03:40;;;;;;;5.67;4.97;;;;;;;17.46;100.00;99717.97;5095536;28;20217;-76
2023/07/09 00:06:08;;;;;;;5.73;5.00;;;;;;;17.45;100.00;99716.34;5112900;28;20206;-77
2023/07/09 00:08:35;;;;;;;6.30;5.60;;;;;;;17.43;100.00;99718.50;5095978;28;20647;-76
2023/07/09 00:11:01;;;;;;;5.50;5.00;;;;;;;17.43;100.00;99718.50;5095238;28;20225;-76
2023/07/09 00:13:28;;;;;;;5.83;5.33;;;;;;;17.36;100.00;99723.31;5103509;28;20244;-78
2023/07/09 00:15:58;;;;;;;5.80;5.30;;;;;;;17.26;100.00;99726.00;5114082;28;20198;-77
2023/07/09 00:18:25;;;;;;;6.00;5.40;;;;;;;17.27;100.00;99723.00;5095288;28;20200;-77
2023/07/09 00:20:51;;;;;;;5.70;5.20;;;;;;;17.20;100.00;99730.53;5108321;28;20190;-77
2023/07/09 00:23:19;;;;;;;6.23;5.57;;;;;;;17.11;100.00;99722.09;5112804;28;20192;-78
2023/07/09 00:25:47;;;;;;;6.20;5.60;;;;;;;17.13;100.00;99727.22;5112105;28;20215;-77
2023/07/09 00:28:15;;;;;;;7.07;5.37;;;;;;;17.11;100.00;99732.09;5095759;28;20196;-76
2023/07/09 00:30:41;;;;;;;6.10;5.53;;;;;;;17.11;100.00;99729.41;5111025;28;20208;-77
2023/07/09 00:33:14;;;;;;;8.23;5.70;;;;;;;17.08;100.00;99729.91;5113557;28;20212;-77
2023/07/09 00:35:50;;;;;;;6.23;5.73;;;;;;;17.01;100.00;99727.44;5096068;28;20196;-79
2023/07/09 00:38:21;;;;;;;6.10;5.60;;;;;;;17.00;100.00;99727.69;5095280;28;20314;-79
2023/07/09 00:41:06;;;;;;;6.40;5.80;;;;;;;16.95;100.00;99736.56;5109122;28;20301;-79
2023/07/09 00:43:37;;;;;;;6.50;5.93;;;;;;;16.92;100.00;99733.56;5109995;28;20198;-78
2023/07/09 00:46:19;;;;;;;6.20;5.70;;;;;;;16.90;100.00;99730.28;5095218;28;20204;-76
2023/07/09 00:49:01;;;;;;;6.40;5.80;;;;;;;16.86;100.00;99732.72;5111448;28;21097;-77
2023/07/09 00:51:29;;;;;;;6.70;6.07;;;;;;;16.84;100.00;99734.06;5070778;28;20192;-79
2023/07/09 00:53:59;;;;;;;7.20;6.60;;;;;;;16.77;100.00;99728.84;5094788;28;20652;-79
2023/07/09 00:56:40;;;;;;;6.80;6.13;;;;;;;16.77;100.00;99736.97;5092622;28;20194;-77
2023/07/09 00:59:10;;;;;;;7.53;6.07;;;;;;;16.70;100.00;99737.16;5113266;28;20196;-79
2023/07/09 01:01:40;;;;;;;6.57;5.97;;;;;;;16.66;100.00;99729.81;5113205;28;20673;-79
2023/07/09 01:04:09;;;;;;;6.27;5.77;;;;;;;16.63;100.00;99727.63;5094965;28;20783;-77
2023/07/09 01:06:39;;;;;;;7.13;6.43;;;;;;;16.62;100.00;99737.63;5109693;28;20192;-77
2023/07/09 01:09:07;;;;;;;6.00;5.40;;;;;;;16.55;100.00;99737.00;5077559;28;20196;-79
2023/07/09 01:11:34;;;;;;;6.83;6.23;;;;;;;16.52;100.00;99733.97;5094651;28;20187;-78
2023/07/09 01:14:03;;;;;;;7.10;6.20;;;;;;;16.52;100.00;99750.19;5092580;28;20246;-80
2023/07/09 01:16:37;;;;;;;6.83;6.33;;;;;;;16.50;100.00;99744.25;5087726;28;20192;-77
2023/07/09 01:19:05;;;;;;;7.23;6.17;;;;;;;16.47;100.00;99733.97;5105409;28;20192;-78
2023/07/09 01:21:32;;;;;;;6.70;6.07;;;;;;;16.45;100.00;99747.72;5112567;28;20674;-78
2023/07/09 01:24:15;;;;;;;6.40;5.80;;;;;;;16.45;100.00;99736.91;5112436;28;20218;-77
2023/07/09 01:26:46;;;;;;;7.00;6.40;;;;;;;16.44;100.00;99731.75;5093655;28;20687;-77
2023/07/09 01:29:13;;;;;;;8.27;5.97;;;;;;;16.44;100.00;99729.84;5112377;28;20239;-78
2023/07/09 01:31:39;;;;;;;6.07;5.57;;;;;;;16.45;100.00;99733.38;5111706;28;20688;-77
2023/07/09 01:34:06;;;;;;;6.57;5.97;;;;;;;16.45;100.00;99736.91;5110386;28;20617;-77
2023/07/09 01:36:33;;;;;;;6.47;5.87;;;;;;;16.46;100.00;99743.13;5106535;28;20193;-77
2023/07/09 01:39:01;;;;;;;6.60;6.00;;;;;;;16.41;100.00;99733.09;5093086;28;20479;-77
2023/07/09 01:41:28;;;;;;;6.60;6.00;;;;;;;16.42;100.00;99734.72;5109119;28;20215;-78
2023/07/09 01:43:55;;;;;;;6.63;5.97;;;;;;;16.41;100.00;99738.50;5092217;28;20206;-77
2023/07/09 01:46:22;;;;;;;6.70;6.10;;;;;;;16.38;100.00;99738.97;5085296;28;20205;-76
2023/07/09 01:48:49;;;;;;;6.30;5.80;;;;;;;16.34;100.00;99732.44;5107868;28;20267;-78
2023/07/09 01:51:16;;;;;;;7.53;6.20;;;;;;;16.29;100.00;99733.22;5108321;28;20192;-78
2023/07/09 01:53:44;;;;;;;7.07;6.10;;;;;;;16.29;100.00;99740.50;5107021;28;20226;-77
2023/07/09 01:56:11;;;;;;;7.40;6.20;;;;;;;16.28;100.00;99739.69;5104174;28;20194;-77
2023/07/09 01:58:41;;;;;;;6.50;6.00;;;;;;;16.27;100.00;99739.97;5090134;28;20257;-77
2023/07/09 02:01:10;;;;;;;6.33;5.83;;;;;;;16.25;100.00;99747.50;5081710;28;20306;-77
2023/07/09 02:03:37;;;;;;;6.87;6.27;;;;;;;16.21;100.00;99736.38;5099476;28;20214;-76
2023/07/09 02:06:09;;;;;;;7.27;6.57;;;;;;;16.18;100.00;99741.47;5102269;28;20195;-76
2023/07/09 02:08:36;;;;;;;7.00;6.40;;;;;;;16.14;100.00;99743.84;5111428;28;20220;-78
2023/07/09 02:11:03;;;;;;;6.53;5.90;;;;;;;16.15;100.00;99753.59;5112037;28;20292;-78
2023/07/09 02:13:30;;;;;;;6.50;6.00;;;;;;;16.13;100.00;99755.75;5107390;28;20307;-77
2023/07/09 02:15:57;;;;;;;6.33;5.83;;;;;;;16.12;100.00;99750.59;5085341;28;20278;-77
2023/07/09 02:18:24;;;;;;;6.80;6.10;;;;;;;16.08;100.00;99746.75;5093243;28;20204;-77
2023/07/09 02:20:50;;;;;;;7.03;6.43;;;;;;;16.08;100.00;99749.47;5107007;28;20192;-77
2023/07/09 02:23:17;;;;;;;6.67;6.07;;;;;;;16.06;100.00;99752.41;5102472;28;20199;-77
2023/07/09 02:25:44;;;;;;;6.67;6.07;;;;;;;16.06;100.00;99757.00;5092728;28;20719;-76
2023/07/09 02:28:10;;;;;;;7.30;6.60;;;;;;;16.07;100.00;99764.03;5093292;28;20205;-78
2023/07/09 02:30:37;;;;;;;7.37;6.70;;;;;;;16.05;100.00;99761.59;5109382;28;20222;-76
2023/07/09 02:33:04;;;;;;;6.50;6.00;;;;;;;16.05;100.00;99760.78;5106484;28;20219;-77
2023/07/09 02:35:31;;;;;;;7.17;6.50;;;;;;;16.04;100.00;99765.38;5106957;28;20199;-77
2023/07/09 02:37:57;;;;;;;7.03;6.43;;;;;;;16.04;100.00;99767.25;5084790;28;20191;-77
2023/07/09 02:40:24;;;;;;;7.07;6.47;;;;;;;16.00;100.00;99766.97;5099407;28;20238;-77
2023/07/09 02:42:51;;;;;;;7.87;6.30;;;;;;;15.97;100.00;99775.53;5093468;28;20203;-77
2023/07/09 02:45:17;;;;;;;6.80;6.10;;;;;;;15.98;100.00;99773.66;5088917;28;20689;-77
2023/07/09 02:47:45;;;;;;;6.07;5.57;;;;;;;15.92;100.00;99774.66;5091036;28;20655;-77
2023/07/09 02:50:13;;;;;;;6.90;6.20;;;;;;;15.91;100.00;99781.94;5110873;28;20283;-77
2023/07/09 02:52:42;;;;;;;7.17;6.47;;;;;;;15.89;100.00;99778.69;5105674;28;20721;-77
2023/07/09 02:55:08;;;;;;;7.17;6.47;;;;;;;15.90;100.00;99784.91;5105910;28;20238;-76
2023/07/09 02:57:35;;;;;;;7.00;6.20;;;;;;;15.86;100.00;99785.38;5111204;28;20191;-78
2023/07/09 03:00:05;;;;;;;6.67;6.07;;;;;;;15.82;100.00;99781.56;5109197;28;20200;-77
2023/07/09 03:02:31;;;;;;;7.17;6.57;;;;;;;15.81;100.00;99787.22;5084991;28;20200;-77
2023/07/09 03:04:58;;;;;;;7.50;6.80;;;;;;;15.81;100.00;99795.34;5089805;28;20285;-77
2023/07/09 03:07:25;;;;;;;7.03;6.50;;;;;;;15.82;100.00;99789.66;5088612;28;20245;-77
2023/07/09 03:09:52;;;;;;;7.30;6.60;;;;;;;15.81;100.00;99789.94;5087731;28;20670;-76
2023/07/09 03:12:18;;;;;;;6.57;6.07;;;;;;;15.83;100.00;99796.72;5089731;28;20189;-77
2023/07/09 03:14:49;;;;;;;7.40;6.60;;;;;;;15.83;100.00;99791.31;5088796;28;20234;-78
2023/07/09 03:17:15;;;;;;;7.47;6.87;;;;;;;15.87;100.00;99797.03;5094777;28;20207;-77
2023/07/09 03:19:42;;;;;;;6.77;6.17;;;;;;;15.90;100.00;99801.13;5089431;28;20192;-77
2023/07/09 03:22:09;;;;;;;7.17;6.37;;;;;;;15.95;100.00;99799.31;5093412;28;20238;-76
2023/07/09 03:24:35;;;;;;;7.00;6.47;;;;;;;15.97;100.00;99810.66;5094824;28;20720;-77
2023/07/09 03:27:02;;;;;;;6.87;6.27;;;;;;;16.02;100.00;99801.81;5093987;28;20639;-76
2023/07/09 03:29:29;;;;;;;7.40;6.70;;;;;;;16.06;100.00;99805.63;5089384;28;20200;-78
2023/07/09 03:31:56;;;;;;;7.57;6.77;;;;;;;16.09;100.00;99795.16;5093191;28;20197;-77
2023/07/09 03:34:23;;;;;;;7.10;6.50;;;;;;;16.13;100.00;99806.28;5094140;28;20635;-77
2023/07/09 03:36:49;;;;;;;7.33;6.73;;;;;;;16.10;100.00;99799.47;5092762;28;20200;-77
2023/07/09 03:39:16;;;;;;;7.30;6.60;;;;;;;16.10;100.00;99795.97;5093465;28;20212;-77
2023/07/09 03:41:42;;;;;;;7.20;6.60;;;;;;;16.18;100.00;99801.78;5093556;28;20603;-76
2023/07/09 03:44:09;;;;;;;7.07;6.53;;;;;;;16.23;100.00;99806.41;5092528;28;20290;-77
2023/07/09 03:46:36;;;;;;;6.97;6.37;;;;;;;16.23;100.00;99807.25;5093746;28;20241;-78
2023/07/09 03:49:03;;;;;;;7.60;7.00;;;;;;;16.26;100.00;99800.50;5088062;28;20557;-76
2023/07/09 03:51:29;;;;;;;7.87;7.17;;;;;;;16.29;100.00;99808.91;5092598;28;20659;-77
2023/07/09 03:53:56;;;;;;;7.57;6.97;;;;;;;16.41;100.00;99810.69;5093442;28;20226;-77
2023/07/09 03:56:23;;;;;;;8.30;7.17;;;;;;;16.47;100.00;99813.16;5090118;28;20731;-77
2023/07/09 03:58:49;;;;;;;7.77;7.07;;;;;;;16.56;100.00;99808.16;5092581;28;20667;-77
2023/07/09 04:01:16;;;;;;;7.20;6.50;;;;;;;16.63;100.00;99806.09;5093472;28;20662;-77
2023/07/09 04:03:43;;;;;;;7.53;6.83;;;;;;;16.70;100.00;99807.50;5096688;28;20227;-77
2023/07/09 04:06:10;;;;;;;7.53;6.83;;;;;;;16.80;100.00;99806.00;5105930;28;20199;-77
2023/07/09 04:08:37;;;;;;;7.00;6.43;;;;;;;16.98;100.00;99811.81;5109141;28;20188;-78
2023/07/09 04:11:05;;;;;;;7.07;6.57;;;;;;;17.77;100.00;99805.69;5113489;28;20680;-81
2023/07/09 04:13:32;;;;;;;7.93;7.33;;;;;;;19.79;100.00;99809.63;5110774;28;20220;-76
2023/07/09 04:15:59;;;;;;;7.07;6.57;;;;;;;21.81;100.00;99801.31;5089352;28;20581;-78
2023/07/09 04:18:26;;;;;;;6.83;6.23;;;;;;;23.44;100.00;99804.28;5114138;28;20184;-77
2023/07/09 04:20:53;;;;;;;7.07;6.47;;;;;;;24.62;100.00;99811.84;5106182;28;20691;-76
2023/07/09 04:23:20;;;;;;;6.70;6.13;;;;;;;25.61;100.00;99801.56;5113120;28;20745;-76
2023/07/09 04:25:47;;;;;;;6.77;6.13;;;;;;;26.38;100.00;99803.00;5104658;28;20198;-76
2023/07/09 04:28:14;;;;;;;6.70;6.00;;;;;;;26.73;100.00;99802.75;5086477;28;20277;-77
2023/07/09 04:30:51;;;;;;;6.83;6.23;;;;;;;27.71;94.55;99796.53;5108708;28;20216;-77
2023/07/09 04:33:19;;;;;;;7.05;6.55;;;;;;;28.39;87.52;99805.63;5108509;28;20295;-77
2023/07/09 04:35:46;;;;;;;7.07;6.47;;;;;;;28.56;83.12;99796.41;5109788;28;20201;-77
2023/07/09 04:38:14;;;;;;;6.50;6.00;;;;;;;28.48;81.64;99806.38;5077749;28;20194;-76
2023/07/09 04:40:40;;;;;;;7.32;6.72;;;;;;;26.97;84.68;99796.78;5106161;28;20180;-77
2023/07/09 04:43:07;;;;;;;6.75;6.18;;;;;;;25.49;89.90;99795.78;5105261;28;20252;-77
2023/07/09 04:45:34;;;;;;;7.25;6.65;;;;;;;24.47;95.56;99804.78;5102933;28;20754;-77
2023/07/09 04:48:01;;;;;;;7.35;6.75;;;;;;;23.71;100.00;99803.53;5100511;28;20196;-78
2023/07/09 04:50:28;;;;;;;7.68;7.07;;;;;;;23.13;100.00;99806.72;5094220;28;20187;-77
2023/07/09 04:52:55;;;;;;;7.10;6.47;;;;;;;22.69;100.00;99800.78;5111589;28;20230;-78
2023/07/09 04:55:21;;;;;;;7.50;6.78;;;;;;;22.36;100.00;99808.06;5113437;28;20192;-78
2023/07/09 04:57:48;;;;;;;7.25;6.65;;;;;;;22.16;100.00;99813.78;5112440;28;20199;-77
2023/07/09 05:00:15;;;;;;;7.20;6.50;;;;;;;22.06;100.00;99817.44;5110762;28;20191;-77
2023/07/09 05:02:42;;;;;;;7.28;6.25;;;;;;;21.98;100.00;99812.59;5104339;28;20644;-78
2023/07/09 05:05:09;;;;;;;6.60;6.10;;;;;;;21.86;100.00;99823.91;5112838;28;20236;-77
2023/07/09 05:07:36;;;;;;;7.38;6.28;;;;;;;21.93;100.00;99821.66;5108007;28;20202;-77
2023/07/09 05:10:03;;;;;;;6.70;6.10;;;;;;;22.01;100.00;99822.13;5112354;28;20192;-78
2023/07/09 05:12:30;;;;;;;6.55;6.05;;;;;;;22.12;100.00;99820.91;5103906;28;20670;-78
2023/07/09 05:14:56;;;;;;;7.32;6.63;;;;;;;22.18;100.00;99828.75;5108099;28;20240;-78
2023/07/09 05:17:23;;;;;;;6.88;6.15;;;;;;;22.24;100.00;99829.50;5112128;28;20279;-78
2023/07/09 05:19:51;;;;;;;7.13;6.53;;;;;;;22.31;100.00;99835.41;5110816;28;20679;-77
2023/07/09 05:22:17;;;;;;;6.95;6.35;;;;;;;22.30;100.00;99836.53;5104613;28;20195;-77
2023/07/09 05:24:44;;;;;;;7.03;6.43;;;;;;;22.45;100.00;99839.06;5097456;28;20284;-76
2023/07/09 05:27:11;;;;;;;7.55;6.80;;;;;;;22.60;100.00;99835.31;5109633;28;20199;-76
2023/07/09 05:29:38;;;;;;;7.20;6.60;;;;;;;22.65;100.00;99835.25;5110325;28;20192;-77
2023/07/09 05:32:05;;;;;;;6.32;5.82;;;;;;;22.68;100.00;99846.38;5111782;28;20198;-81
2023/07/09 05:34:31;;;;;;;7.70;6.53;;;;;;;22.67;100.00;99836.59;5111594;28;20650;-77
2023/07/09 05:36:58;;;;;;;7.40;6.80;;;;;;;22.69;100.00;99856.22;5111476;28;20690;-77
2023/07/09 05:39:27;;;;;;;7.10;6.45;;;;;;;22.61;100.00;99848.69;5101124;28;20183;-78
2023/07/09 05:41:53;;;;;;;7.15;6.45;;;;;;;22.62;100.00;99849.50;5112023;28;20192;-76
2023/07/09 05:44:20;;;;;;;6.72;6.13;;;;;;;22.62;100.00;99849.50;5110844;28;20287;-76
2023/07/09 05:46:47;;;;;;;7.10;6.50;;;;;;;22.80;100.00;99848.72;5110908;28;20229;-77
2023/07/09 05:49:13;;;;;;;6.60;6.00;;;;;;;22.99;100.00;99857.75;5107186;28;20199;-76
2023/07/09 05:51:40;;;;;;;6.25;5.47;;;;;;;23.18;100.00;99861.28;5110760;28;20189;-76
2023/07/09 05:54:07;;;;;;;5.80;5.30;;;;;;;23.33;100.00;99862.94;5111977;28;20223;-76
2023/07/09 05:56:33;;;;;;;5.60;5.10;;;;;;;23.30;100.00;99855.34;5093957;28;20218;-76
2023/07/09 05:59:00;;;;;;;5.90;5.35;;;;;;;23.53;100.00;99864.56;5106802;28;20195;-76
2023/07/09 06:01:27;;;;;;;6.32;5.55;;;;;;;23.63;100.00;99861.66;5111385;28;20280;-77
2023/07/09 06:03:54;;;;;;;6.43;5.75;;;;;;;23.76;100.00;99863.63;5111885;28;20275;-76
2023/07/09 06:06:22;;;;;;;6.65;6.03;;;;;;;23.59;100.00;99856.00;5109404;28;20206;-77
2023/07/09 06:08:50;;;;;;;7.60;5.97;;;;;;;23.94;100.00;99860.00;5110743;28;20222;-78
2023/07/09 06:11:17;;;;;;;6.57;5.60;;;;;;;24.20;100.00;99862.28;5110967;28;20227;-78
2023/07/09 06:13:47;;;;;;;5.55;4.90;;;;;;;24.32;100.00;99859.84;5107564;28;20219;-77
2023/07/09 06:16:14;;;;;;;5.90;5.40;;;;;;;24.45;100.00;99857.09;5111488;28;20200;-77
2023/07/09 06:18:41;;;;;;;7.63;5.75;;;;;;;24.60;100.00;99866.94;5104476;28;20206;-77
2023/07/09 06:21:10;;;;;;;7.05;5.82;;;;;;;24.42;100.00;99865.13;5105923;28;20264;-76
2023/07/09 06:23:37;;;;;;;5.90;5.40;;;;;;;24.63;100.00;99862.78;5105612;28;20192;-78
2023/07/09 06:26:03;;;;;;;6.82;6.13;;;;;;;24.41;100.00;99867.06;5110016;28;20194;-76
2023/07/09 06:28:31;;;;;;;7.30;6.20;;;;;;;24.06;100.00;99875.94;5112086;28;20197;-76
2023/07/09 06:30:57;;;;;;;6.13;5.53;;;;;;;24.18;100.00;99884.50;5092850;28;20189;-76
2023/07/09 06:33:25;;;;;;;6.00;5.50;;;;;;;24.53;100.00;99883.00;5109068;28;20214;-77
2023/07/09 06:35:58;;;;;;;7.22;5.60;;;;;;;24.58;100.00;99874.66;5093180;28;20240;-77
2023/07/09 06:38:25;;;;;;;10.73;5.43;;;;;;;24.85;100.00;99885.56;5093941;28;20716;-77
2023/07/09 06:40:52;;;;;;;5.93;5.40;;;;;;;25.09;100.00;99874.38;5112048;28;20199;-78
2023/07/09 06:43:19;;;;;;;5.90;5.30;;;;;;;25.33;100.00;99877.66;5111433;28;20190;-76
2023/07/09 06:45:58;;;;;;;6.57;5.63;;;;;;;24.77;100.00;99877.28;5087793;28;20206;-76
2023/07/09 06:48:27;;;;;;;7.50;5.40;;;;;;;25.04;100.00;99869.03;5113771;28;20199;-76
2023/07/09 06:50:55;;;;;;;7.15;5.07;;;;;;;25.29;100.00;99868.41;5097311;28;20240;-77
2023/07/09 06:53:22;;;;;;;5.88;4.93;;;;;;;25.34;100.00;99871.03;5115965;28;20203;-78
2023/07/09 06:55:49;;;;;;;6.22;5.25;;;;;;;25.65;100.00;99871.13;5109736;28;20219;-77
2023/07/09 06:58:17;;;;;;;5.88;5.32;;;;;;;25.78;100.00;99867.50;5115090;28;20666;-79
2023/07/09 07:00:44;;;;;;;6.00;5.10;;;;;;;25.48;100.00;99870.97;5115300;28;20206;-76
2023/07/09 07:03:11;;;;;;;5.82;5.20;;;;;;;25.72;100.00;99860.50;5107635;28;20680;-75
2023/07/09 07:05:43;;;;;;;5.85;5.25;;;;;;;25.98;100.00;99862.59;5093601;28;20224;-76
2023/07/09 07:08:09;;;;;;;5.32;4.82;;;;;;;26.12;100.00;99861.38;5088894;28;20302;-75
2023/07/09 07:10:36;;;;;;;6.80;5.13;;;;;;;26.01;100.00;99868.25;5094502;28;20206;-79
2023/07/09 07:13:03;;;;;;;5.82;5.05;;;;;;;25.86;100.00;99863.97;5086950;28;20557;-78
2023/07/09 07:15:30;;;;;;;7.38;5.28;;;;;;;26.25;100.00;99863.22;5088775;28;20266;-77
2023/07/09 07:17:57;;;;;;;6.10;4.60;;;;;;;26.46;100.00;99868.94;5085032;28;20201;-78
2023/07/09 07:20:24;;;;;;;5.68;5.15;;;;;;;26.65;100.00;99861.22;5085418;28;20234;-76
2023/07/09 07:22:50;;;;;;;6.28;4.85;;;;;;;26.81;99.60;99855.28;5091135;28;20689;-76
2023/07/09 07:25:17;;;;;;;5.35;4.85;;;;;;;26.93;97.97;99869.22;5090384;28;20246;-78
2023/07/09 07:27:44;;;;;;;5.40;5.00;;;;;;;26.58;96.11;99857.34;5085892;28;20718;-76
2023/07/09 07:30:11;;;;;;;6.15;4.82;;;;;;;26.31;97.25;99857.59;5084889;28;20227;-78
2023/07/09 07:32:38;;;;;;;5.32;4.80;;;;;;;26.45;96.05;99852.78;5093511;28;20646;-75
2023/07/09 07:35:06;;;;;;;5.18;4.78;;;;;;;26.37;95.23;99854.38;5092524;28;20252;-75
2023/07/09 07:37:32;;;;;;;5.38;4.88;;;;;;;26.58;97.15;99860.91;5087456;28;20188;-76
2023/07/09 07:39:59;;;;;;;8.20;5.03;;;;;;;26.71;95.74;99859.97;5092680;28;20193;-77
2023/07/09 07:42:26;;;;;;;5.05;4.60;;;;;;;26.47;94.67;99859.56;5078654;28;20192;-76
2023/07/09 07:44:53;;;;;;;5.30;4.80;;;;;;;26.77;95.74;99854.31;5076134;28;20201;-77
2023/07/09 07:47:20;;;;;;;6.25;5.00;;;;;;;26.91;94.65;99852.25;5088630;28;20597;-76
2023/07/09 07:49:46;;;;;;;5.93;5.35;;;;;;;26.71;94.28;99850.91;5088729;28;20192;-78
2023/07/09 07:52:14;;;;;;;5.35;4.85;;;;;;;27.05;94.02;99847.41;5086347;28;20228;-77
2023/07/09 07:54:40;;;;;;;5.45;4.95;;;;;;;27.26;94.62;99850.31;5090988;28;20245;-77
2023/07/09 07:57:08;;;;;;;6.22;4.97;;;;;;;27.47;92.88;99845.75;5093468;28;20193;-77
2023/07/09 07:59:36;;;;;;;5.45;4.95;;;;;;;27.64;91.32;99845.75;5088660;28;20597;-78
2023/07/09 08:02:05;;;;;;;5.60;5.00;;;;;;;27.73;91.58;99849.28;5093330;28;20196;-77
2023/07/09 08:04:32;;;;;;;5.40;4.90;;;;;;;27.90;89.93;99840.19;5103601;28;20234;-76
2023/07/09 08:06:58;;;;;;;6.30;4.65;;;;;;;27.57;90.49;99837.19;5110997;28;20676;-77
2023/07/09 08:09:25;;;;;;;5.57;4.85;;;;;;;27.97;88.99;99841.28;5106658;28;20191;-79
2023/07/09 08:11:52;;;;;;;5.90;5.30;;;;;;;27.95;89.25;99842.72;5111493;28;20215;-77
2023/07/09 08:14:18;;;;;;;5.88;5.28;;;;;;;27.85;91.33;99846.69;5110916;28;20280;-77
2023/07/09 08:16:47;;;;;;;6.93;4.68;;;;;;;28.17;91.13;99845.28;5112508;28;20196;-78
2023/07/09 08:19:19;;;;;;;5.30;4.88;;;;;;;28.30;88.68;99847.00;5105539;28;20199;-77
2023/07/09 08:21:46;;;;;;;5.38;4.88;;;;;;;28.54;90.05;99854.66;5112106;28;20196;-77
2023/07/09 08:24:14;;;;;;;5.57;5.07;;;;;;;28.56;87.00;99854.31;5112465;28;20219;-78
2023/07/09 08:26:41;;;;;;;5.45;4.90;;;;;;;28.68;85.20;99844.19;5112879;28;20195;-77
2023/07/09 08:29:07;;;;;;;8.35;5.07;;;;;;;28.83;85.31;99846.41;5110897;28;20215;-77
2023/07/09 08:31:34;;;;;;;7.13;5.07;;;;;;;29.02;84.72;99847.88;5101641;28;20215;-77
2023/07/09 08:34:01;;;;;;;6.30;5.25;;;;;;;28.73;84.70;99843.22;5104436;28;20208;-78
2023/07/09 08:36:28;;;;;;;6.10;4.90;;;;;;;29.01;85.74;99849.81;5103002;28;20630;-78
2023/07/09 08:38:56;;;;;;;5.75;5.25;;;;;;;29.04;83.62;99854.66;5102750;28;20191;-77
2023/07/09 08:41:58;;;;;;;6.20;5.20;;;;;;;29.12;82.04;99845.50;5106802;28;20616;-77
2023/07/09 08:45:02;;;;;;;5.78;5.15;;;;;;;29.08;82.35;99854.78;5099436;28;20223;-76
2023/07/09 08:48:01;;;;;;;5.70;5.20;;;;;;;29.01;81.96;99854.53;5083183;28;20189;-75
2023/07/09 08:50:43;;;;;;;6.93;5.78;;;;;;;29.19;81.53;99850.47;5091381;28;20246;-78
2023/07/09 08:53:19;;;;;;;6.28;5.63;;;;;;;29.21;82.92;99846.22;5105953;28;20207;-77
2023/07/09 08:55:48;;;;;;;5.78;5.25;;;;;;;29.06;85.48;99848.81;5103497;28;20211;-77
2023/07/09 08:58:21;;;;;;;7.40;5.75;;;;;;;29.17;82.14;99853.56;5082613;28;20562;-78
2023/07/09 09:00:57;;;;;;;6.18;5.53;;;;;;;28.86;85.33;99853.19;5084770;28;20227;-79
2023/07/09 09:03:43;;;;;;;6.05;5.45;;;;;;;28.81;85.71;99853.38;5077054;28;20188;-78
2023/07/09 09:06:21;;;;;;;5.80;5.30;;;;;;;29.08;83.32;99850.06;5082324;28;20201;-77
2023/07/09 09:08:51;;;;;;;6.97;5.70;;;;;;;28.86;82.37;99858.69;5086556;28;20669;-77
2023/07/09 09:11:39;;;;;;;5.53;4.95;;;;;;;29.25;82.69;99854.66;5102554;28;20219;-76
2023/07/09 09:14:27;;;;;;;5.88;5.30;;;;;;;29.23;82.59;99854.97;5106764;28;20211;-75
2023/07/09 09:16:55;;;;;;;6.65;4.68;;;;;;;29.65;80.75;99847.47;5100975;28;20568;-77
2023/07/09 09:19:23;;;;;;;5.88;5.28;;;;;;;29.77;80.42;99847.47;5082575;28;20279;-78
2023/07/09 09:21:56;;;;;;;5.78;5.28;;;;;;;29.98;79.20;99839.16;5083321;28;20615;-77
2023/07/09 09:24:31;;;;;;;5.68;5.22;;;;;;;30.14;76.52;99836.53;5088042;28;20200;-78
2023/07/09 09:26:59;;;;;;;6.15;4.70;;;;;;;30.39;74.66;99840.09;5083945;28;20206;-78
2023/07/09 09:29:26;;;;;;;4.90;4.50;;;;;;;30.53;73.63;99843.34;5095004;28;20275;-79
2023/07/09 09:31:56;;;;;;;4.45;4.05;;;;;;;30.68;72.56;99850.13;5105437;28;20188;-79
2023/07/09 09:34:27;;;;;;;5.63;5.13;;;;;;;30.52;73.87;99855.53;5094982;28;20580;-78
2023/07/09 09:36:55;;;;;;;6.25;4.72;;;;;;;30.64;73.14;99847.25;5103481;28;20188;-78
2023/07/09 09:39:24;;;;;;;6.47;4.80;;;;;;;30.83;71.53;99844.69;5079445;28;20185;-79
2023/07/09 09:41:56;;;;;;;5.07;4.63;;;;;;;30.75;71.56;99853.13;5087774;28;20197;-78
2023/07/09 09:44:28;;;;;;;5.05;4.45;;;;;;;30.67;67.98;99840.19;5099061;28;20612;-78
2023/07/09 09:46:57;;;;;;;5.13;4.70;;;;;;;30.91;67.54;99843.75;5111742;28;20199;-78
2023/07/09 09:49:27;;;;;;;4.70;4.30;;;;;;;31.12;67.62;99840.84;5110928;28;20192;-78
2023/07/09 09:51:56;;;;;;;5.22;4.72;;;;;;;31.18;65.25;99839.41;5100943;28;20567;-77
2023/07/09 09:54:30;;;;;;;4.20;3.80;;;;;;;31.38;59.89;99843.94;5098018;28;20220;-79
2023/07/09 09:56:57;;;;;;;4.78;4.25;;;;;;;31.67;61.07;99842.00;5104485;28;20470;-77
2023/07/09 09:59:36;;;;;;;5.47;4.30;;;;;;;31.80;60.88;99838.78;5103646;28;20195;-78
2023/07/09 10:02:21;;;;;;;6.10;4.30;;;;;;;31.67;59.86;99840.03;5095905;28;20654;-78
2023/07/09 10:04:48;;;;;;;4.40;3.80;;;;;;;31.66;60.92;99837.59;5108073;28;20271;-78
2023/07/09 10:07:27;;;;;;;4.68;4.28;;;;;;;31.70;57.33;99833.78;5107230;28;20233;-78
2023/07/09 10:09:54;;;;;;;4.60;4.20;;;;;;;31.84;56.58;99847.19;5081070;28;20195;-78
2023/07/09 10:12:38;;;;;;;4.38;3.97;;;;;;;31.99;55.79;99840.06;5102357;28;20199;-79
2023/07/09 10:15:24;;;;;;;4.50;4.10;;;;;;;32.06;56.85;99838.25;5086940;28;20244;-78
2023/07/09 10:17:54;;;;;;;4.70;4.30;;;;;;;31.99;55.84;99835.31;5109923;28;20203;-78
2023/07/09 10:20:32;;;;;;;5.13;4.28;;;;;;;32.05;55.68;99836.66;5103999;28;20195;-78
2023/07/09 10:23:13;;;;;;;4.50;4.10;;;;;;;32.26;54.27;99833.63;5113292;28;20214;-78
2023/07/09 10:25:49;;;;;;;4.78;4.28;;;;;;;32.43;54.19;99830.47;5092146;28;20199;-78
2023/07/09 10:28:28;;;;;;;5.38;4.30;;;;;;;32.64;54.09;99824.66;5097458;28;20191;-79
2023/07/09 10:31:06;;;;;;;4.00;3.60;;;;;;;32.59;49.72;99822.13;5111950;28;20191;-78
2023/07/09 10:33:51;;;;;;;4.55;4.15;;;;;;;32.50;56.36;99821.53;5115713;28;20697;-78
2023/07/09 10:36:28;;;;;;;5.30;4.28;;;;;;;32.21;52.79;99811.72;5102641;28;20215;-78
2023/07/09 10:39:02;;;;;;;4.25;3.95;;;;;;;32.62;53.16;99819.41;5115056;28;20205;-78
2023/07/09 10:41:30;;;;;;;5.10;4.10;;;;;;;32.87;52.28;99828.34;5099677;28;20199;-78
2023/07/09 10:44:05;;;;;;;4.63;4.20;;;;;;;32.66;50.77;99817.56;5092409;28;20223;-78
2023/07/09 10:46:34;;;;;;;4.18;3.88;;;;;;;32.01;50.79;99812.81;5097345;28;20190;-77
2023/07/09 10:49:06;;;;;;;5.15;4.18;;;;;;;32.21;50.99;99814.50;5090173;28;20719;-78
2023/07/09 10:51:58;;;;;;;4.40;3.97;;;;;;;32.57;50.21;99814.16;5095426;28;20187;-79
2023/07/09 10:54:56;;;;;;;4.53;4.20;;;;;;;32.96;50.40;99803.94;5086542;28;20561;-78
2023/07/09 10:57:51;;;;;;;4.60;4.20;;;;;;;33.29;50.72;99813.75;5075307;28;20651;-80
2023/07/09 11:00:19;;;;;;;4.93;4.43;;;;;;;33.50;50.25;99812.19;5087116;28;20187;-78
2023/07/09 11:03:13;;;;;;;5.38;4.40;;;;;;;33.50;50.00;99803.84;5091910;28;20227;-78
2023/07/09 11:05:40;;;;;;;5.15;4.72;;;;;;;33.21;48.47;99803.69;5052874;28;20220;-77
2023/07/09 11:08:12;;;;;;;4.00;3.58;;;;;;;33.46;47.42;99807.72;5091501;28;20219;-78
2023/07/09 11:10:46;;;;;;;4.03;3.60;;;;;;;33.53;43.56;99796.78;5082619;28;20195;-78
2023/07/09 11:13:22;;;;;;;4.10;3.67;;;;;;;33.73;47.04;99800.34;5083626;28;20208;-78
2023/07/09 11:15:50;;;;;;;4.10;3.70;;;;;;;33.54;47.22;99804.75;5110139;28;20285;-79
2023/07/09 11:18:25;;;;;;;3.97;3.60;;;;;;;33.05;44.50;99793.44;5089940;28;20520;-78
2023/07/09 11:21:05;;;;;;;3.78;3.47;;;;;;;33.08;41.36;99797.47;5091741;28;20697;-78
2023/07/09 11:23:50;;;;;;;3.53;3.22;;;;;;;32.94;40.78;99799.94;5115112;28;20221;-78
2023/07/09 11:26:34;;;;;;;3.58;3.30;;;;;;;33.12;36.38;99795.56;5115088;28;20191;-78
2023/07/09 11:29:06;;;;;;;3.80;3.50;;;;;;;33.40;38.83;99798.91;5114172;28;20282;-76
2023/07/09 11:31:36;;;;;;;3.72;2.95;;;;;;;33.42;35.97;99796.56;5113866;28;20200;-78
2023/07/09 11:34:14;;;;;;;4.70;3.60;;;;;;;33.62;36.93;99797.31;5111543;28;20249;-77
2023/07/09 11:36:49;;;;;;;3.70;3.50;;;;;;;33.86;37.11;99793.41;5101320;28;20196;-77
2023/07/09 11:39:40;;;;;;;3.72;3.30;;;;;;;34.19;36.01;99787.22;5093407;28;20200;-79
2023/07/09 11:42:33;;;;;;;4.10;3.80;;;;;;;34.55;37.00;99781.00;5095075;28;20189;-75